Medemborg — PJAG — position and weather

sailwx.info

Track history (hours):
 
Tides and Currents Weather Stations Pressure Air Temp Water Temp Dewpoint Dewpoint Depression Visibility Wind Speed Wind Dir Waves Ship Positions

Medemborg

Last reported at 2014-Sep-23 07:29 UTC. Time now 2014-Sep-30 16:03 UTC.
Position N 35°50' E 010°39'.

Length 135 m; draft 6 m.

Type: Cargo ship. MMSI: 306581000.

Date/timePositionNaut miles runAvg speedWind from/ knotsBaromVisibWave heightAir tempDewpointWater temp
2014-Sep-23 07:29N 35°50' E 010°39'0 0.0
2014-Sep-23 06:34N 35°50' E 010°39'39 9.0
2014-Sep-23 02:13N 36°10' E 011°20'811.7
2014-Sep-23 01:33N 36°18' E 011°19'1311.8
2014-Sep-23 00:30N 36°31' E 011°20'1111.8
2014-Sep-22 23:33N 36°42' E 011°19'44 9.9
2014-Sep-22 19:09N 37°22' E 010°59'711.8
2014-Sep-22 18:33N 37°21' E 010°50'1211.9
2014-Sep-22 17:32N 37°20' E 010°35'1211.9
2014-Sep-22 16:29N 37°19' E 010°19'1111.8
2014-Sep-22 15:33N 37°18' E 010°05'10 0.3
2014-Sep-20 22:27N 37°16' E 009°52'2 2.1
2014-Sep-20 21:33N 37°17' E 009°55'0 0.3
2014-Sep-20 20:32N 37°17' E 009°55'1 1.0
2014-Sep-20 19:19N 37°18' E 009°56'0 0.1
2014-Sep-20 18:31N 37°18' E 009°56'0 0.0
2014-Sep-20 17:31N 37°18' E 009°56'0 0.1
2014-Sep-20 16:31N 37°18' E 009°56'0 0.0
2014-Sep-20 15:31N 37°18' E 009°56'0 0.0
2014-Sep-20 14:31N 37°18' E 009°56'0 0.0
2014-Sep-20 13:31N 37°18' E 009°56'0 0.0
2014-Sep-20 12:31N 37°18' E 009°56'0 0.0
2014-Sep-20 11:31N 37°17' E 009°56'0 0.0
2014-Sep-20 10:31N 37°17' E 009°56'0 0.0
2014-Sep-20 08:31N 37°18' E 009°56'0 0.0
2014-Sep-20 07:31N 37°18' E 009°56'0 0.0
2014-Sep-20 05:31N 37°18' E 009°56'0 0.0
2014-Sep-20 02:04N 37°18' E 009°56'0 0.0
2014-Sep-20 01:25N 37°18' E 009°56'0 0.1
2014-Sep-19 22:31N 37°18' E 009°56'0 0.0
2014-Sep-19 21:31N 37°18' E 009°56'0 0.1
2014-Sep-19 20:25N 37°18' E 009°56'0 0.0
2014-Sep-19 19:31N 37°18' E 009°56'0 0.0
2014-Sep-19 18:04N 37°18' E 009°56'0 0.0
2014-Sep-19 14:31N 37°18' E 009°56'0 0.0
2014-Sep-19 13:31N 37°18' E 009°56'0 0.0
2014-Sep-19 12:31N 37°18' E 009°56'0 0.0
2014-Sep-19 11:31N 37°18' E 009°56'0 0.0
2014-Sep-19 10:31N 37°18' E 009°56'0 0.0
2014-Sep-19 09:31N 37°18' E 009°56'0 0.0
2014-Sep-19 08:31N 37°18' E 009°56'0 0.0
2014-Sep-19 07:31N 37°18' E 009°56'0 0.0
2014-Sep-19 03:04N 37°18' E 009°56'0 0.2
2014-Sep-19 02:31N 37°18' E 009°56'0 0.0
2014-Sep-18 17:10N 37°18' E 009°56'0 0.0
2014-Sep-18 16:31N 37°18' E 009°56'0 0.0
2014-Sep-18 15:31N 37°18' E 009°56'0 0.0
2014-Sep-18 13:32N 37°18' E 009°56'0 0.0
2014-Sep-18 12:07N 37°18' E 009°56'9 1.3
2014-Sep-18 05:20N 37°19' E 010°07'4110.5
2014-Sep-18 01:29N 37°38' E 010°52'1010.3
2014-Sep-18 00:30N 37°43' E 011°03'116 2.6
2014-Sep-16 04:07N 37°03' E 013°20'813.9
2014-Sep-16 03:33N 36°60' E 013°28'1513.7
2014-Sep-16 02:30N 36°54' E 013°45'1212.9
2014-Sep-16 01:33N 36°50' E 013°59'1312.9
2014-Sep-16 00:33N 36°45' E 014°14'1313.2
2014-Sep-15 23:33N 36°39' E 014°29'1713.0
2014-Sep-15 22:16N 36°35' E 014°50'913.2
2014-Sep-15 21:33N 36°34' E 015°01'16 0.4
2014-Sep-14 05:33N 36°36' E 014°42'1413.8
2014-Sep-14 04:33N 36°40' E 014°25'1413.9
2014-Sep-14 03:34N 36°44' E 014°08'1413.6
2014-Sep-14 02:33N 36°48' E 013°52'1413.6
2014-Sep-14 01:33N 36°52' E 013°36'5313.4
2014-Sep-13 21:33N 37°06' E 012°31'1313.4
2014-Sep-13 20:33N 37°10' E 012°15'  
Track history (hours):
 
Tides and Currents Weather Stations Pressure Air Temp Water Temp Dewpoint Dewpoint Depression Visibility Wind Speed Wind Dir Waves Ship Positions

Medemborg

Last reported at 2014-Sep-23 07:29 UTC. Time now 2014-Sep-30 16:03 UTC.
Position N 35°50' E 010°39'.

Length 135 m; draft 6 m.

Type: Cargo ship. MMSI: 306581000.

Date/timePositionNaut miles runAvg speedWind from/ knotsBaromVisibWave heightAir tempDewpointWater temp
2014-Sep-23 07:29N 35°50' E 010°39'0 0.0
2014-Sep-23 06:34N 35°50' E 010°39'39 9.0
2014-Sep-23 02:13N 36°10' E 011°20'811.7
2014-Sep-23 01:33N 36°18' E 011°19'1311.8
2014-Sep-23 00:30N 36°31' E 011°20'1111.8
2014-Sep-22 23:33N 36°42' E 011°19'44 9.9
2014-Sep-22 19:09N 37°22' E 010°59'711.8
2014-Sep-22 18:33N 37°21' E 010°50'1211.9
2014-Sep-22 17:32N 37°20' E 010°35'1211.9
2014-Sep-22 16:29N 37°19' E 010°19'1111.8
2014-Sep-22 15:33N 37°18' E 010°05'10 0.3
2014-Sep-20 22:27N 37°16' E 009°52'2 2.1
2014-Sep-20 21:33N 37°17' E 009°55'0 0.3
2014-Sep-20 20:32N 37°17' E 009°55'1 1.0
2014-Sep-20 19:19N 37°18' E 009°56'0 0.1
2014-Sep-20 18:31N 37°18' E 009°56'0 0.0
2014-Sep-20 17:31N 37°18' E 009°56'0 0.1
2014-Sep-20 16:31N 37°18' E 009°56'0 0.0
2014-Sep-20 15:31N 37°18' E 009°56'0 0.0
2014-Sep-20 14:31N 37°18' E 009°56'0 0.0
2014-Sep-20 13:31N 37°18' E 009°56'0 0.0
2014-Sep-20 12:31N 37°18' E 009°56'0 0.0
2014-Sep-20 11:31N 37°17' E 009°56'0 0.0
2014-Sep-20 10:31N 37°17' E 009°56'0 0.0
2014-Sep-20 08:31N 37°18' E 009°56'0 0.0
2014-Sep-20 07:31N 37°18' E 009°56'0 0.0
2014-Sep-20 05:31N 37°18' E 009°56'0 0.0
2014-Sep-20 02:04N 37°18' E 009°56'0 0.0
2014-Sep-20 01:25N 37°18' E 009°56'0 0.1
2014-Sep-19 22:31N 37°18' E 009°56'0 0.0
2014-Sep-19 21:31N 37°18' E 009°56'0 0.1
2014-Sep-19 20:25N 37°18' E 009°56'0 0.0
2014-Sep-19 19:31N 37°18' E 009°56'0 0.0
2014-Sep-19 18:04N 37°18' E 009°56'0 0.0
2014-Sep-19 14:31N 37°18' E 009°56'0 0.0
2014-Sep-19 13:31N 37°18' E 009°56'0 0.0
2014-Sep-19 12:31N 37°18' E 009°56'0 0.0
2014-Sep-19 11:31N 37°18' E 009°56'0 0.0
2014-Sep-19 10:31N 37°18' E 009°56'0 0.0
2014-Sep-19 09:31N 37°18' E 009°56'0 0.0
2014-Sep-19 08:31N 37°18' E 009°56'0 0.0
2014-Sep-19 07:31N 37°18' E 009°56'0 0.0
2014-Sep-19 03:04N 37°18' E 009°56'0 0.2
2014-Sep-19 02:31N 37°18' E 009°56'0 0.0
2014-Sep-18 17:10N 37°18' E 009°56'0 0.0
2014-Sep-18 16:31N 37°18' E 009°56'0 0.0
2014-Sep-18 15:31N 37°18' E 009°56'0 0.0
2014-Sep-18 13:32N 37°18' E 009°56'0 0.0
2014-Sep-18 12:07N 37°18' E 009°56'9 1.3
2014-Sep-18 05:20N 37°19' E 010°07'4110.5
2014-Sep-18 01:29N 37°38' E 010°52'1010.3
2014-Sep-18 00:30N 37°43' E 011°03'116 2.6
2014-Sep-16 04:07N 37°03' E 013°20'813.9
2014-Sep-16 03:33N 36°60' E 013°28'1513.7
2014-Sep-16 02:30N 36°54' E 013°45'1212.9
2014-Sep-16 01:33N 36°50' E 013°59'1312.9
2014-Sep-16 00:33N 36°45' E 014°14'1313.2
2014-Sep-15 23:33N 36°39' E 014°29'1713.0
2014-Sep-15 22:16N 36°35' E 014°50'913.2
2014-Sep-15 21:33N 36°34' E 015°01'16 0.4
2014-Sep-14 05:33N 36°36' E 014°42'1413.8
2014-Sep-14 04:33N 36°40' E 014°25'1413.9
2014-Sep-14 03:34N 36°44' E 014°08'1413.6
2014-Sep-14 02:33N 36°48' E 013°52'1413.6
2014-Sep-14 01:33N 36°52' E 013°36'5313.4
2014-Sep-13 21:33N 37°06' E 012°31'1313.4
2014-Sep-13 20:33N 37°10' E 012°15'  

Dump ship's entire track history